TimeCDT,TemperatureF,Dew PointF,Humidity,Sea Level PressureIn,VisibilityMPH,Wind Direction,Wind SpeedMPH,Gust SpeedMPH,PrecipitationIn,Events,Conditions,WindDirDegrees,DateUTC
12:51 AM,59.0,53.6,82,29.96,10.0,SE,6.9,-,N/A,,Scattered Clouds,140,2013-09-24 05:51:00
1:51 AM,60.8,51.8,72,29.95,10.0,ESE,8.1,-,N/A,,Partly Cloudy,120,2013-09-24 06:51:00
2:51 AM,59.0,53.6,82,29.94,10.0,ESE,6.9,-,N/A,,Clear,110,2013-09-24 07:51:00
3:51 AM,59.0,53.6,82,29.94,10.0,ESE,8.1,-,N/A,,Mostly Cloudy,120,2013-09-24 08:51:00
4:51 AM,59.0,53.6,82,29.94,10.0,ESE,6.9,-,N/A,,Partly Cloudy,110,2013-09-24 09:51:00
5:51 AM,57.2,53.6,88,29.93,10.0,ESE,6.9,-,N/A,,Partly Cloudy,110,2013-09-24 10:51:00
6:51 AM,57.2,53.6,88,29.94,10.0,ESE,6.9,-,N/A,,Scattered Clouds,120,2013-09-24 11:51:00
7:51 AM,57.2,55.4,94,29.93,10.0,ESE,8.1,-,N/A,,Scattered Clouds,110,2013-09-24 12:51:00
8:51 AM,64.4,55.4,73,29.92,10.0,ESE,10.4,-,N/A,,Mostly Cloudy,110,2013-09-24 13:51:00
9:51 AM,68.0,57.2,68,29.91,10.0,ESE,10.4,-,N/A,,Mostly Cloudy,110,2013-09-24 14:51:00
10:51 AM,69.8,59.0,68,29.90,10.0,SE,10.4,-,N/A,,Mostly Cloudy,130,2013-09-24 15:51:00
11:51 AM,75.2,59.0,57,29.89,10.0,SE,12.7,-,N/A,,Mostly Cloudy,140,2013-09-24 16:51:00
12:51 PM,78.8,60.8,54,29.87,10.0,ESE,13.8,-,N/A,,Scattered Clouds,110,2013-09-24 17:51:00
1:51 PM,82.4,59.0,45,29.85,10.0,SE,11.5,20.7,N/A,,Mostly Cloudy,140,2013-09-24 18:51:00
2:51 PM,84.2,59.0,42,29.83,10.0,ESE,15.0,-,N/A,,Mostly Cloudy,120,2013-09-24 19:51:00
3:51 PM,80.6,57.2,45,29.81,10.0,East,12.7,-,N/A,,Mostly Cloudy,100,2013-09-24 20:51:00
4:51 PM,82.4,59.0,45,29.80,10.0,ESE,13.8,-,N/A,,Mostly Cloudy,110,2013-09-24 21:51:00
5:51 PM,82.4,60.8,48,29.79,10.0,SE,13.8,-,N/A,,Mostly Cloudy,130,2013-09-24 22:51:00
6:51 PM,77.0,62.6,61,29.79,10.0,ESE,11.5,-,N/A,,Mostly Cloudy,110,2013-09-24 23:51:00
7:51 PM,77.0,62.6,61,29.79,10.0,SE,11.5,-,N/A,,Mostly Cloudy,140,2013-09-25 00:51:00
8:51 PM,73.4,64.4,73,29.80,10.0,SSE,12.7,-,N/A,,Scattered Clouds,150,2013-09-25 01:51:00
9:51 PM,73.4,64.4,73,29.82,10.0,ESE,12.7,-,N/A,,Scattered Clouds,120,2013-09-25 02:51:00
10:30 PM,73.4,64.4,73,29.82,10.0,ESE,8.1,-,N/A,Thunderstorm,Thunderstorm,110,2013-09-25 03:30:00
10:51 PM,71.6,64.4,78,29.83,10.0,ESE,3.5,-,N/A,Thunderstorm,Thunderstorm,120,2013-09-25 03:51:00
11:16 PM,71.6,64.4,78,29.83,10.0,SSE,4.6,-,N/A,,Mostly Cloudy,150,2013-09-25 04:16:00
11:51 PM,69.8,64.4,83,29.83,10.0,SE,8.1,-,N/A,,Mostly Cloudy,140,2013-09-25 04:51:00